Larryville, Pennsylvania
Current Conditions -  °F | °C
As of 2:54 AM on Friday 24 Oct 2014 (Local Time) from KIPT Reporting Station
Overcast Overcast  
Wind Chill: 56°   Ceiling: 2900
Heat Index: 56°   Visibility: 10mi
Dew Point: 43°   Wind: 12mph
Humidity: 62%   Direction: 320°NW
Pressure: 29.92"   Gusts: NA
Location:  41.1288°N, 77.1989°W
Report Text: KIPT 240654Z AUTO 32010KT 10SM OVC029 13/06 A2992 RMK AO2 SLP131 T01330061
Loading
Personal Weather Stations






























Interactive Weather Map
Tropical Storm Tracking
New forecast layout! Learn more

10-Day Weather Forecast

Advertisements
Track Severe Weather on mobile